sensor_id;sensor_type;location;lat;lon;timestamp;P1;durP1;ratioP1;P2;durP2;ratioP2
2620;SDS011;1320;48.128;11.592;2023-04-29T00:02:17;3.80;;;1.00;;
2620;SDS011;1320;48.128;11.592;2023-04-29T00:04:43;3.60;;;1.20;;
2620;SDS011;1320;48.128;11.592;2023-04-29T00:07:09;4.73;;;1.20;;
2620;SDS011;1320;48.128;11.592;2023-04-29T00:09:39;2.93;;;1.13;;
2620;SDS011;1320;48.128;11.592;2023-04-29T00:12:05;3.97;;;1.40;;
2620;SDS011;1320;48.128;11.592;2023-04-29T00:14:30;3.23;;;1.13;;
2620;SDS011;1320;48.128;11.592;2023-04-29T00:16:56;3.13;;;1.20;;
2620;SDS011;1320;48.128;11.592;2023-04-29T00:19:22;2.70;;;1.03;;
2620;SDS011;1320;48.128;11.592;2023-04-29T00:21:47;2.57;;;1.00;;
2620;SDS011;1320;48.128;11.592;2023-04-29T00:24:13;3.20;;;1.03;;
2620;SDS011;1320;48.128;11.592;2023-04-29T00:26:39;5.93;;;1.30;;
2620;SDS011;1320;48.128;11.592;2023-04-29T00:29:05;2.50;;;1.10;;
2620;SDS011;1320;48.128;11.592;2023-04-29T00:31:30;2.90;;;1.17;;
2620;SDS011;1320;48.128;11.592;2023-04-29T00:33:56;3.13;;;1.10;;
2620;SDS011;1320;48.128;11.592;2023-04-29T00:36:22;2.47;;;1.00;;
2620;SDS011;1320;48.128;11.592;2023-04-29T00:38:48;5.10;;;1.67;;
2620;SDS011;1320;48.128;11.592;2023-04-29T00:41:14;3.90;;;1.80;;
2620;SDS011;1320;48.128;11.592;2023-04-29T00:43:39;4.30;;;1.50;;
2620;SDS011;1320;48.128;11.592;2023-04-29T00:46:05;3.10;;;1.40;;
2620;SDS011;1320;48.128;11.592;2023-04-29T00:48:31;2.80;;;1.23;;
2620;SDS011;1320;48.128;11.592;2023-04-29T00:50:57;3.47;;;1.30;;
2620;SDS011;1320;48.128;11.592;2023-04-29T00:53:23;2.60;;;1.10;;
2620;SDS011;1320;48.128;11.592;2023-04-29T00:55:49;4.93;;;1.70;;
2620;SDS011;1320;48.128;11.592;2023-04-29T00:58:16;3.20;;;1.10;;
2620;SDS011;1320;48.128;11.592;2023-04-29T01:00:43;3.00;;;1.10;;
2620;SDS011;1320;48.128;11.592;2023-04-29T01:03:10;2.80;;;1.10;;
2620;SDS011;1320;48.128;11.592;2023-04-29T01:05:37;3.30;;;1.07;;
2620;SDS011;1320;48.128;11.592;2023-04-29T01:08:13;3.30;;;1.17;;
2620;SDS011;1320;48.128;11.592;2023-04-29T01:10:54;4.80;;;1.50;;
2620;SDS011;1320;48.128;11.592;2023-04-29T01:13:28;3.50;;;1.33;;
2620;SDS011;1320;48.128;11.592;2023-04-29T01:16:00;4.17;;;1.23;;
2620;SDS011;1320;48.128;11.592;2023-04-29T01:18:33;3.10;;;1.30;;
2620;SDS011;1320;48.128;11.592;2023-04-29T01:21:03;5.63;;;1.30;;
2620;SDS011;1320;48.128;11.592;2023-04-29T01:23:29;3.17;;;1.57;;
2620;SDS011;1320;48.128;11.592;2023-04-29T01:25:55;3.60;;;1.33;;
2620;SDS011;1320;48.128;11.592;2023-04-29T01:41:57;2.93;;;1.70;;
2620;SDS011;1320;48.128;11.592;2023-04-29T01:44:33;4.50;;;1.20;;
2620;SDS011;1320;48.128;11.592;2023-04-29T01:47:00;2.80;;;1.27;;
2620;SDS011;1320;48.128;11.592;2023-04-29T01:49:27;2.60;;;1.00;;
2620;SDS011;1320;48.128;11.592;2023-04-29T01:51:53;3.50;;;1.20;;
2620;SDS011;1320;48.128;11.592;2023-04-29T01:54:20;3.40;;;1.30;;
2620;SDS011;1320;48.128;11.592;2023-04-29T01:56:48;2.93;;;1.00;;
2620;SDS011;1320;48.128;11.592;2023-04-29T01:59:15;2.87;;;1.30;;
2620;SDS011;1320;48.128;11.592;2023-04-29T02:01:41;2.83;;;1.30;;
2620;SDS011;1320;48.128;11.592;2023-04-29T02:04:07;3.73;;;1.70;;
2620;SDS011;1320;48.128;11.592;2023-04-29T02:06:32;2.67;;;1.20;;
2620;SDS011;1320;48.128;11.592;2023-04-29T02:08:58;3.17;;;1.27;;
2620;SDS011;1320;48.128;11.592;2023-04-29T02:11:23;3.30;;;1.20;;
2620;SDS011;1320;48.128;11.592;2023-04-29T02:13:49;3.90;;;1.50;;
2620;SDS011;1320;48.128;11.592;2023-04-29T02:16:15;4.27;;;1.90;;
2620;SDS011;1320;48.128;11.592;2023-04-29T02:18:41;3.13;;;1.20;;
2620;SDS011;1320;48.128;11.592;2023-04-29T02:21:07;3.20;;;1.30;;
2620;SDS011;1320;48.128;11.592;2023-04-29T02:23:33;3.30;;;1.53;;
2620;SDS011;1320;48.128;11.592;2023-04-29T02:25:59;3.80;;;1.30;;
2620;SDS011;1320;48.128;11.592;2023-04-29T02:28:25;4.00;;;1.23;;
2620;SDS011;1320;48.128;11.592;2023-04-29T02:30:51;10.40;;;1.20;;
2620;SDS011;1320;48.128;11.592;2023-04-29T02:33:17;3.70;;;1.53;;
2620;SDS011;1320;48.128;11.592;2023-04-29T02:35:43;3.13;;;1.30;;
2620;SDS011;1320;48.128;11.592;2023-04-29T02:38:09;3.23;;;1.40;;
2620;SDS011;1320;48.128;11.592;2023-04-29T02:40:45;3.27;;;1.43;;
2620;SDS011;1320;48.128;11.592;2023-04-29T02:43:11;3.40;;;1.53;;
2620;SDS011;1320;48.128;11.592;2023-04-29T02:45:37;3.67;;;1.37;;
2620;SDS011;1320;48.128;11.592;2023-04-29T02:48:04;3.40;;;1.50;;
2620;SDS011;1320;48.128;11.592;2023-04-29T02:50:30;3.10;;;1.30;;
2620;SDS011;1320;48.128;11.592;2023-04-29T02:52:56;3.50;;;1.40;;
2620;SDS011;1320;48.128;11.592;2023-04-29T02:55:22;3.37;;;1.50;;
2620;SDS011;1320;48.128;11.592;2023-04-29T02:57:48;3.27;;;1.30;;
2620;SDS011;1320;48.128;11.592;2023-04-29T03:00:14;3.83;;;1.53;;
2620;SDS011;1320;48.128;11.592;2023-04-29T03:02:39;3.43;;;1.40;;
2620;SDS011;1320;48.128;11.592;2023-04-29T03:05:05;4.00;;;1.90;;
2620;SDS011;1320;48.128;11.592;2023-04-29T03:07:31;3.50;;;1.53;;
2620;SDS011;1320;48.128;11.592;2023-04-29T03:09:57;5.37;;;1.73;;
2620;SDS011;1320;48.128;11.592;2023-04-29T03:12:23;6.07;;;1.80;;
2620;SDS011;1320;48.128;11.592;2023-04-29T03:14:48;4.13;;;1.80;;
2620;SDS011;1320;48.128;11.592;2023-04-29T03:17:14;3.03;;;1.40;;
2620;SDS011;1320;48.128;11.592;2023-04-29T03:19:40;4.33;;;1.80;;
2620;SDS011;1320;48.128;11.592;2023-04-29T03:22:06;3.50;;;1.40;;
2620;SDS011;1320;48.128;11.592;2023-04-29T03:24:35;4.00;;;1.60;;
2620;SDS011;1320;48.128;11.592;2023-04-29T03:27:02;3.47;;;1.57;;
2620;SDS011;1320;48.128;11.592;2023-04-29T03:29:28;3.70;;;2.00;;
2620;SDS011;1320;48.128;11.592;2023-04-29T03:31:54;3.37;;;1.70;;
2620;SDS011;1320;48.128;11.592;2023-04-29T03:34:21;3.10;;;1.37;;
2620;SDS011;1320;48.128;11.592;2023-04-29T03:36:47;3.63;;;1.73;;
2620;SDS011;1320;48.128;11.592;2023-04-29T03:39:13;3.37;;;1.80;;
2620;SDS011;1320;48.128;11.592;2023-04-29T03:41:38;3.87;;;2.03;;
2620;SDS011;1320;48.128;11.592;2023-04-29T03:44:04;3.43;;;1.80;;
2620;SDS011;1320;48.128;11.592;2023-04-29T03:46:30;3.50;;;1.60;;
2620;SDS011;1320;48.128;11.592;2023-04-29T03:48:56;4.77;;;1.90;;
2620;SDS011;1320;48.128;11.592;2023-04-29T03:51:22;3.50;;;1.60;;
2620;SDS011;1320;48.128;11.592;2023-04-29T03:53:49;3.13;;;1.50;;
2620;SDS011;1320;48.128;11.592;2023-04-29T03:56:15;3.23;;;1.43;;
2620;SDS011;1320;48.128;11.592;2023-04-29T03:58:41;3.80;;;1.80;;
2620;SDS011;1320;48.128;11.592;2023-04-29T04:01:07;4.40;;;2.20;;
2620;SDS011;1320;48.128;11.592;2023-04-29T04:03:33;3.57;;;1.83;;
2620;SDS011;1320;48.128;11.592;2023-04-29T04:05:59;3.90;;;2.00;;
2620;SDS011;1320;48.128;11.592;2023-04-29T04:08:24;3.63;;;2.03;;
2620;SDS011;1320;48.128;11.592;2023-04-29T04:10:50;3.37;;;1.60;;
2620;SDS011;1320;48.128;11.592;2023-04-29T04:13:16;4.20;;;2.30;;
2620;SDS011;1320;48.128;11.592;2023-04-29T04:15:42;3.73;;;1.70;;
2620;SDS011;1320;48.128;11.592;2023-04-29T04:18:13;3.43;;;1.80;;
2620;SDS011;1320;48.128;11.592;2023-04-29T04:20:38;3.43;;;1.90;;
2620;SDS011;1320;48.128;11.592;2023-04-29T04:23:04;4.30;;;2.37;;
2620;SDS011;1320;48.128;11.592;2023-04-29T04:25:30;4.60;;;1.97;;
2620;SDS011;1320;48.128;11.592;2023-04-29T04:27:56;3.20;;;1.40;;
2620;SDS011;1320;48.128;11.592;2023-04-29T04:30:21;7.00;;;2.57;;
2620;SDS011;1320;48.128;11.592;2023-04-29T04:32:47;3.60;;;1.90;;
2620;SDS011;1320;48.128;11.592;2023-04-29T04:35:13;4.67;;;2.13;;
2620;SDS011;1320;48.128;11.592;2023-04-29T04:37:39;3.67;;;1.90;;
2620;SDS011;1320;48.128;11.592;2023-04-29T04:40:05;3.73;;;1.83;;
2620;SDS011;1320;48.128;11.592;2023-04-29T04:42:32;5.17;;;2.80;;
2620;SDS011;1320;48.128;11.592;2023-04-29T04:44:58;5.60;;;2.27;;
2620;SDS011;1320;48.128;11.592;2023-04-29T04:47:23;3.37;;;1.67;;
2620;SDS011;1320;48.128;11.592;2023-04-29T04:49:49;3.60;;;1.70;;
2620;SDS011;1320;48.128;11.592;2023-04-29T04:52:18;5.30;;;2.47;;
2620;SDS011;1320;48.128;11.592;2023-04-29T04:54:47;4.13;;;2.30;;
2620;SDS011;1320;48.128;11.592;2023-04-29T04:57:12;3.40;;;2.03;;
2620;SDS011;1320;48.128;11.592;2023-04-29T04:59:38;6.50;;;2.27;;
2620;SDS011;1320;48.128;11.592;2023-04-29T05:02:04;4.63;;;2.40;;
2620;SDS011;1320;48.128;11.592;2023-04-29T05:04:29;5.20;;;2.07;;
2620;SDS011;1320;48.128;11.592;2023-04-29T05:06:55;4.13;;;2.40;;
2620;SDS011;1320;48.128;11.592;2023-04-29T05:09:21;5.70;;;2.30;;
2620;SDS011;1320;48.128;11.592;2023-04-29T05:11:46;4.47;;;2.20;;
2620;SDS011;1320;48.128;11.592;2023-04-29T05:14:12;4.70;;;2.57;;
2620;SDS011;1320;48.128;11.592;2023-04-29T05:16:37;4.50;;;2.20;;
2620;SDS011;1320;48.128;11.592;2023-04-29T05:19:03;5.90;;;2.80;;
2620;SDS011;1320;48.128;11.592;2023-04-29T05:21:29;4.00;;;2.37;;
2620;SDS011;1320;48.128;11.592;2023-04-29T05:23:55;6.53;;;2.73;;
2620;SDS011;1320;48.128;11.592;2023-04-29T05:26:21;4.27;;;2.47;;
2620;SDS011;1320;48.128;11.592;2023-04-29T05:28:47;6.20;;;2.37;;
2620;SDS011;1320;48.128;11.592;2023-04-29T05:31:12;4.23;;;2.70;;
2620;SDS011;1320;48.128;11.592;2023-04-29T05:33:38;5.57;;;3.00;;
2620;SDS011;1320;48.128;11.592;2023-04-29T05:36:04;6.30;;;3.10;;
2620;SDS011;1320;48.128;11.592;2023-04-29T05:38:30;4.00;;;2.40;;
2620;SDS011;1320;48.128;11.592;2023-04-29T05:40:56;6.90;;;2.33;;
2620;SDS011;1320;48.128;11.592;2023-04-29T05:43:22;5.07;;;2.60;;
2620;SDS011;1320;48.128;11.592;2023-04-29T05:45:48;5.13;;;2.63;;
2620;SDS011;1320;48.128;11.592;2023-04-29T05:48:14;3.97;;;2.40;;
2620;SDS011;1320;48.128;11.592;2023-04-29T05:50:40;4.13;;;2.43;;
2620;SDS011;1320;48.128;11.592;2023-04-29T05:53:06;5.57;;;2.80;;
2620;SDS011;1320;48.128;11.592;2023-04-29T05:55:31;4.57;;;2.20;;
2620;SDS011;1320;48.128;11.592;2023-04-29T05:57:57;4.03;;;2.40;;
2620;SDS011;1320;48.128;11.592;2023-04-29T06:00:22;5.93;;;2.97;;
2620;SDS011;1320;48.128;11.592;2023-04-29T06:02:48;9.30;;;2.60;;
2620;SDS011;1320;48.128;11.592;2023-04-29T06:05:14;4.60;;;2.00;;
2620;SDS011;1320;48.128;11.592;2023-04-29T06:07:40;5.53;;;2.83;;
2620;SDS011;1320;48.128;11.592;2023-04-29T06:10:07;5.00;;;2.20;;
2620;SDS011;1320;48.128;11.592;2023-04-29T06:12:33;3.93;;;2.40;;
2620;SDS011;1320;48.128;11.592;2023-04-29T06:14:58;4.40;;;2.80;;
2620;SDS011;1320;48.128;11.592;2023-04-29T06:17:24;4.67;;;2.93;;
2620;SDS011;1320;48.128;11.592;2023-04-29T06:19:53;4.83;;;2.60;;
2620;SDS011;1320;48.128;11.592;2023-04-29T06:22:21;5.10;;;2.43;;
2620;SDS011;1320;48.128;11.592;2023-04-29T06:24:47;4.80;;;2.80;;
2620;SDS011;1320;48.128;11.592;2023-04-29T06:27:16;4.30;;;2.53;;
2620;SDS011;1320;48.128;11.592;2023-04-29T06:29:42;4.60;;;2.93;;
2620;SDS011;1320;48.128;11.592;2023-04-29T06:32:08;4.67;;;2.43;;
2620;SDS011;1320;48.128;11.592;2023-04-29T06:34:33;4.77;;;3.00;;
2620;SDS011;1320;48.128;11.592;2023-04-29T06:37:01;4.00;;;2.70;;
2620;SDS011;1320;48.128;11.592;2023-04-29T06:39:26;5.90;;;3.50;;
2620;SDS011;1320;48.128;11.592;2023-04-29T06:41:52;6.07;;;3.23;;
2620;SDS011;1320;48.128;11.592;2023-04-29T06:44:18;5.97;;;3.70;;
2620;SDS011;1320;48.128;11.592;2023-04-29T06:46:43;5.10;;;3.53;;
2620;SDS011;1320;48.128;11.592;2023-04-29T06:49:09;4.73;;;3.33;;
2620;SDS011;1320;48.128;11.592;2023-04-29T06:51:38;6.47;;;4.60;;
2620;SDS011;1320;48.128;11.592;2023-04-29T06:54:04;5.17;;;3.77;;
2620;SDS011;1320;48.128;11.592;2023-04-29T06:56:29;7.67;;;4.00;;
2620;SDS011;1320;48.128;11.592;2023-04-29T06:58:55;6.03;;;3.77;;
2620;SDS011;1320;48.128;11.592;2023-04-29T07:01:21;5.53;;;3.53;;
2620;SDS011;1320;48.128;11.592;2023-04-29T07:03:46;5.20;;;3.50;;
2620;SDS011;1320;48.128;11.592;2023-04-29T07:06:12;4.73;;;3.70;;
2620;SDS011;1320;48.128;11.592;2023-04-29T07:08:38;6.20;;;4.20;;
2620;SDS011;1320;48.128;11.592;2023-04-29T07:11:03;6.30;;;4.57;;
2620;SDS011;1320;48.128;11.592;2023-04-29T07:13:29;9.23;;;4.37;;
2620;SDS011;1320;48.128;11.592;2023-04-29T07:15:55;5.83;;;3.57;;
2620;SDS011;1320;48.128;11.592;2023-04-29T07:18:21;8.23;;;3.87;;
2620;SDS011;1320;48.128;11.592;2023-04-29T07:20:47;6.43;;;3.50;;
2620;SDS011;1320;48.128;11.592;2023-04-29T07:23:15;4.80;;;3.40;;
2620;SDS011;1320;48.128;11.592;2023-04-29T07:25:40;5.70;;;4.00;;
2620;SDS011;1320;48.128;11.592;2023-04-29T07:28:06;7.23;;;4.63;;
2620;SDS011;1320;48.128;11.592;2023-04-29T07:30:35;5.10;;;3.70;;
2620;SDS011;1320;48.128;11.592;2023-04-29T07:33:00;6.07;;;4.37;;
2620;SDS011;1320;48.128;11.592;2023-04-29T07:35:28;5.97;;;4.00;;
2620;SDS011;1320;48.128;11.592;2023-04-29T07:37:54;5.43;;;4.13;;
2620;SDS011;1320;48.128;11.592;2023-04-29T07:40:20;6.43;;;4.30;;
2620;SDS011;1320;48.128;11.592;2023-04-29T07:42:45;10.73;;;4.03;;
2620;SDS011;1320;48.128;11.592;2023-04-29T07:45:11;8.17;;;4.40;;
2620;SDS011;1320;48.128;11.592;2023-04-29T07:47:37;7.47;;;3.70;;
2620;SDS011;1320;48.128;11.592;2023-04-29T07:50:04;6.97;;;3.93;;
2620;SDS011;1320;48.128;11.592;2023-04-29T07:52:30;5.87;;;3.90;;
2620;SDS011;1320;48.128;11.592;2023-04-29T07:54:55;6.33;;;3.90;;
2620;SDS011;1320;48.128;11.592;2023-04-29T07:57:21;5.87;;;3.90;;
2620;SDS011;1320;48.128;11.592;2023-04-29T07:59:50;4.80;;;3.20;;
2620;SDS011;1320;48.128;11.592;2023-04-29T08:02:18;9.73;;;3.67;;
2620;SDS011;1320;48.128;11.592;2023-04-29T08:04:44;5.70;;;3.47;;
2620;SDS011;1320;48.128;11.592;2023-04-29T08:07:10;4.40;;;3.07;;
2620;SDS011;1320;48.128;11.592;2023-04-29T08:09:36;6.60;;;3.80;;
2620;SDS011;1320;48.128;11.592;2023-04-29T08:12:02;4.43;;;2.90;;
2620;SDS011;1320;48.128;11.592;2023-04-29T08:14:28;5.43;;;3.60;;
2620;SDS011;1320;48.128;11.592;2023-04-29T08:16:54;4.67;;;2.93;;
2620;SDS011;1320;48.128;11.592;2023-04-29T08:19:20;5.53;;;3.97;;
2620;SDS011;1320;48.128;11.592;2023-04-29T08:21:46;5.60;;;3.83;;
2620;SDS011;1320;48.128;11.592;2023-04-29T08:24:12;4.70;;;3.37;;
2620;SDS011;1320;48.128;11.592;2023-04-29T08:26:40;4.67;;;2.70;;
2620;SDS011;1320;48.128;11.592;2023-04-29T08:29:06;7.07;;;3.37;;
2620;SDS011;1320;48.128;11.592;2023-04-29T08:31:32;3.63;;;2.50;;
2620;SDS011;1320;48.128;11.592;2023-04-29T08:33:58;4.77;;;2.73;;
2620;SDS011;1320;48.128;11.592;2023-04-29T08:36:24;4.80;;;3.00;;
2620;SDS011;1320;48.128;11.592;2023-04-29T08:38:52;3.97;;;2.70;;
2620;SDS011;1320;48.128;11.592;2023-04-29T08:41:18;4.30;;;2.37;;
2620;SDS011;1320;48.128;11.592;2023-04-29T08:43:44;5.37;;;3.43;;
2620;SDS011;1320;48.128;11.592;2023-04-29T08:46:10;4.80;;;3.00;;
2620;SDS011;1320;48.128;11.592;2023-04-29T08:48:36;5.43;;;2.50;;
2620;SDS011;1320;48.128;11.592;2023-04-29T08:51:04;4.13;;;2.30;;
2620;SDS011;1320;48.128;11.592;2023-04-29T08:53:30;4.47;;;2.37;;
2620;SDS011;1320;48.128;11.592;2023-04-29T08:55:56;4.67;;;2.53;;
2620;SDS011;1320;48.128;11.592;2023-04-29T08:58:27;5.20;;;2.30;;
2620;SDS011;1320;48.128;11.592;2023-04-29T09:00:58;4.47;;;2.60;;
2620;SDS011;1320;48.128;11.592;2023-04-29T09:03:33;4.03;;;2.00;;
2620;SDS011;1320;48.128;11.592;2023-04-29T09:06:14;4.63;;;2.10;;
2620;SDS011;1320;48.128;11.592;2023-04-29T09:08:40;3.67;;;1.90;;
2620;SDS011;1320;48.128;11.592;2023-04-29T09:11:09;7.10;;;2.20;;
2620;SDS011;1320;48.128;11.592;2023-04-29T09:13:36;5.33;;;2.30;;
2620;SDS011;1320;48.128;11.592;2023-04-29T09:16:02;4.13;;;2.30;;
2620;SDS011;1320;48.128;11.592;2023-04-29T09:18:47;5.67;;;2.70;;
2620;SDS011;1320;48.128;11.592;2023-04-29T09:21:24;3.47;;;1.80;;
2620;SDS011;1320;48.128;11.592;2023-04-29T09:23:55;3.83;;;2.50;;
2620;SDS011;1320;48.128;11.592;2023-04-29T09:26:21;4.30;;;2.57;;
2620;SDS011;1320;48.128;11.592;2023-04-29T09:29:05;4.67;;;3.47;;
2620;SDS011;1320;48.128;11.592;2023-04-29T09:31:30;3.55;;;1.70;;
2620;SDS011;1320;48.128;11.592;2023-04-29T09:33:56;4.20;;;1.87;;
2620;SDS011;1320;48.128;11.592;2023-04-29T09:39:20;3.43;;;1.60;;
2620;SDS011;1320;48.128;11.592;2023-04-29T09:44:19;3.93;;;1.80;;
2620;SDS011;1320;48.128;11.592;2023-04-29T09:46:59;3.30;;;1.70;;
2620;SDS011;1320;48.128;11.592;2023-04-29T09:52:03;5.87;;;2.90;;
2620;SDS011;1320;48.128;11.592;2023-04-29T09:54:31;5.70;;;2.70;;
2620;SDS011;1320;48.128;11.592;2023-04-29T09:56:58;4.13;;;1.90;;
2620;SDS011;1320;48.128;11.592;2023-04-29T09:59:26;3.67;;;1.90;;
2620;SDS011;1320;48.128;11.592;2023-04-29T10:01:55;3.43;;;1.80;;
2620;SDS011;1320;48.128;11.592;2023-04-29T10:04:22;3.10;;;1.63;;
2620;SDS011;1320;48.128;11.592;2023-04-29T10:06:50;3.50;;;1.77;;
2620;SDS011;1320;48.128;11.592;2023-04-29T10:09:17;3.83;;;1.90;;
2620;SDS011;1320;48.128;11.592;2023-04-29T10:11:44;4.33;;;1.83;;
2620;SDS011;1320;48.128;11.592;2023-04-29T10:14:20;3.70;;;1.67;;
2620;SDS011;1320;48.128;11.592;2023-04-29T10:16:47;3.60;;;1.53;;
2620;SDS011;1320;48.128;11.592;2023-04-29T10:19:20;2.77;;;1.80;;
2620;SDS011;1320;48.128;11.592;2023-04-29T10:21:49;3.73;;;2.30;;
2620;SDS011;1320;48.128;11.592;2023-04-29T10:24:16;8.23;;;3.03;;
2620;SDS011;1320;48.128;11.592;2023-04-29T10:26:45;5.03;;;2.20;;
2620;SDS011;1320;48.128;11.592;2023-04-29T10:29:14;3.80;;;2.60;;
2620;SDS011;1320;48.128;11.592;2023-04-29T10:31:41;23.60;;;12.33;;
2620;SDS011;1320;48.128;11.592;2023-04-29T10:34:09;5.53;;;3.63;;
2620;SDS011;1320;48.128;11.592;2023-04-29T10:36:37;6.40;;;3.03;;
2620;SDS011;1320;48.128;11.592;2023-04-29T10:39:03;4.27;;;2.47;;
2620;SDS011;1320;48.128;11.592;2023-04-29T10:41:41;5.80;;;2.87;;
2620;SDS011;1320;48.128;11.592;2023-04-29T10:44:12;6.63;;;2.90;;
2620;SDS011;1320;48.128;11.592;2023-04-29T10:46:38;5.83;;;3.37;;
2620;SDS011;1320;48.128;11.592;2023-04-29T10:49:05;3.77;;;2.37;;
2620;SDS011;1320;48.128;11.592;2023-04-29T10:54:18;3.90;;;2.23;;
2620;SDS011;1320;48.128;11.592;2023-04-29T10:56:52;3.87;;;1.80;;
2620;SDS011;1320;48.128;11.592;2023-04-29T10:59:22;4.70;;;2.30;;
2620;SDS011;1320;48.128;11.592;2023-04-29T11:02:07;3.00;;;1.90;;
2620;SDS011;1320;48.128;11.592;2023-04-29T11:04:34;3.73;;;2.23;;
2620;SDS011;1320;48.128;11.592;2023-04-29T11:07:27;5.07;;;2.37;;
2620;SDS011;1320;48.128;11.592;2023-04-29T11:09:53;8.13;;;3.07;;
2620;SDS011;1320;48.128;11.592;2023-04-29T11:12:19;3.93;;;1.73;;
2620;SDS011;1320;48.128;11.592;2023-04-29T11:14:49;5.03;;;3.00;;
2620;SDS011;1320;48.128;11.592;2023-04-29T11:17:16;4.50;;;2.00;;
2620;SDS011;1320;48.128;11.592;2023-04-29T11:19:50;4.43;;;2.20;;
2620;SDS011;1320;48.128;11.592;2023-04-29T11:22:26;3.80;;;2.13;;
2620;SDS011;1320;48.128;11.592;2023-04-29T11:24:58;2.93;;;1.83;;
2620;SDS011;1320;48.128;11.592;2023-04-29T11:27:31;3.90;;;2.03;;
2620;SDS011;1320;48.128;11.592;2023-04-29T11:29:59;3.30;;;1.90;;
2620;SDS011;1320;48.128;11.592;2023-04-29T11:32:27;3.93;;;2.00;;
2620;SDS011;1320;48.128;11.592;2023-04-29T11:35:07;3.53;;;2.03;;
2620;SDS011;1320;48.128;11.592;2023-04-29T11:37:33;3.03;;;1.50;;
2620;SDS011;1320;48.128;11.592;2023-04-29T11:39:59;5.37;;;2.27;;
2620;SDS011;1320;48.128;11.592;2023-04-29T11:42:25;3.57;;;1.70;;
2620;SDS011;1320;48.128;11.592;2023-04-29T11:44:55;3.53;;;2.03;;
2620;SDS011;1320;48.128;11.592;2023-04-29T11:47:27;4.20;;;1.80;;
2620;SDS011;1320;48.128;11.592;2023-04-29T11:50:27;4.37;;;1.80;;
2620;SDS011;1320;48.128;11.592;2023-04-29T11:52:47;3.77;;;1.87;;
2620;SDS011;1320;48.128;11.592;2023-04-29T11:55:13;3.10;;;1.90;;
2620;SDS011;1320;48.128;11.592;2023-04-29T11:57:39;3.10;;;1.67;;
2620;SDS011;1320;48.128;11.592;2023-04-29T12:00:07;3.53;;;1.70;;
2620;SDS011;1320;48.128;11.592;2023-04-29T12:02:36;3.50;;;1.73;;
2620;SDS011;1320;48.128;11.592;2023-04-29T12:05:05;3.60;;;1.60;;
2620;SDS011;1320;48.128;11.592;2023-04-29T12:07:36;3.90;;;1.90;;
2620;SDS011;1320;48.128;11.592;2023-04-29T12:10:06;3.00;;;1.63;;
2620;SDS011;1320;48.128;11.592;2023-04-29T12:12:35;2.73;;;1.60;;
2620;SDS011;1320;48.128;11.592;2023-04-29T12:15:04;3.00;;;1.70;;
2620;SDS011;1320;48.128;11.592;2023-04-29T12:17:31;3.90;;;2.30;;
2620;SDS011;1320;48.128;11.592;2023-04-29T12:19:57;3.40;;;1.53;;
2620;SDS011;1320;48.128;11.592;2023-04-29T12:22:29;3.43;;;1.87;;
2620;SDS011;1320;48.128;11.592;2023-04-29T12:24:59;2.70;;;1.60;;
2620;SDS011;1320;48.128;11.592;2023-04-29T12:27:27;5.20;;;2.03;;
2620;SDS011;1320;48.128;11.592;2023-04-29T12:29:53;3.40;;;1.83;;
2620;SDS011;1320;48.128;11.592;2023-04-29T12:32:21;3.17;;;2.10;;
2620;SDS011;1320;48.128;11.592;2023-04-29T12:34:49;3.17;;;1.43;;
2620;SDS011;1320;48.128;11.592;2023-04-29T12:37:16;3.60;;;1.87;;
2620;SDS011;1320;48.128;11.592;2023-04-29T12:39:42;4.90;;;2.07;;
2620;SDS011;1320;48.128;11.592;2023-04-29T12:42:13;3.33;;;1.77;;
2620;SDS011;1320;48.128;11.592;2023-04-29T12:44:46;3.47;;;1.60;;
2620;SDS011;1320;48.128;11.592;2023-04-29T12:47:12;3.87;;;2.40;;
2620;SDS011;1320;48.128;11.592;2023-04-29T12:49:41;3.53;;;1.70;;
2620;SDS011;1320;48.128;11.592;2023-04-29T12:52:08;2.53;;;1.47;;
2620;SDS011;1320;48.128;11.592;2023-04-29T12:54:40;3.07;;;1.80;;
2620;SDS011;1320;48.128;11.592;2023-04-29T12:57:07;2.73;;;1.70;;
2620;SDS011;1320;48.128;11.592;2023-04-29T12:59:33;6.70;;;1.63;;
2620;SDS011;1320;48.128;11.592;2023-04-29T13:01:59;2.90;;;1.60;;
2620;SDS011;1320;48.128;11.592;2023-04-29T13:04:25;5.37;;;1.60;;
2620;SDS011;1320;48.128;11.592;2023-04-29T13:06:51;3.17;;;1.90;;
2620;SDS011;1320;48.128;11.592;2023-04-29T13:09:23;3.10;;;1.60;;
2620;SDS011;1320;48.128;11.592;2023-04-29T13:11:50;6.77;;;2.80;;
2620;SDS011;1320;48.128;11.592;2023-04-29T13:14:16;2.90;;;1.60;;
2620;SDS011;1320;48.128;11.592;2023-04-29T13:16:42;4.47;;;1.57;;
2620;SDS011;1320;48.128;11.592;2023-04-29T13:19:09;2.50;;;1.60;;
2620;SDS011;1320;48.128;11.592;2023-04-29T13:21:35;3.80;;;1.90;;
2620;SDS011;1320;48.128;11.592;2023-04-29T13:24:00;2.60;;;1.30;;
2620;SDS011;1320;48.128;11.592;2023-04-29T13:26:26;3.67;;;1.37;;
2620;SDS011;1320;48.128;11.592;2023-04-29T13:28:52;2.70;;;1.40;;
2620;SDS011;1320;48.128;11.592;2023-04-29T13:31:17;4.80;;;1.50;;
2620;SDS011;1320;48.128;11.592;2023-04-29T13:33:43;4.80;;;1.70;;
2620;SDS011;1320;48.128;11.592;2023-04-29T13:36:09;2.90;;;1.43;;
2620;SDS011;1320;48.128;11.592;2023-04-29T13:38:35;3.00;;;1.50;;
2620;SDS011;1320;48.128;11.592;2023-04-29T13:41:00;2.60;;;1.40;;
2620;SDS011;1320;48.128;11.592;2023-04-29T13:43:26;3.13;;;1.40;;
2620;SDS011;1320;48.128;11.592;2023-04-29T13:45:52;3.20;;;1.60;;
2620;SDS011;1320;48.128;11.592;2023-04-29T13:48:18;2.73;;;1.73;;
2620;SDS011;1320;48.128;11.592;2023-04-29T13:50:44;4.93;;;1.70;;
2620;SDS011;1320;48.128;11.592;2023-04-29T13:53:10;4.30;;;1.30;;
2620;SDS011;1320;48.128;11.592;2023-04-29T13:55:35;3.10;;;1.70;;
2620;SDS011;1320;48.128;11.592;2023-04-29T13:58:01;2.47;;;1.10;;
2620;SDS011;1320;48.128;11.592;2023-04-29T14:00:27;3.97;;;1.40;;
2620;SDS011;1320;48.128;11.592;2023-04-29T14:02:53;2.50;;;1.43;;
2620;SDS011;1320;48.128;11.592;2023-04-29T14:05:19;5.07;;;1.43;;
2620;SDS011;1320;48.128;11.592;2023-04-29T14:07:45;4.40;;;1.40;;
2620;SDS011;1320;48.128;11.592;2023-04-29T14:10:10;2.73;;;1.57;;
2620;SDS011;1320;48.128;11.592;2023-04-29T14:12:36;3.73;;;1.40;;
2620;SDS011;1320;48.128;11.592;2023-04-29T14:15:02;7.13;;;1.63;;
2620;SDS011;1320;48.128;11.592;2023-04-29T14:17:28;6.30;;;2.23;;
2620;SDS011;1320;48.128;11.592;2023-04-29T14:19:53;2.70;;;1.30;;
2620;SDS011;1320;48.128;11.592;2023-04-29T14:22:19;2.70;;;1.40;;
2620;SDS011;1320;48.128;11.592;2023-04-29T14:24:45;2.87;;;1.40;;
2620;SDS011;1320;48.128;11.592;2023-04-29T14:27:11;2.80;;;1.20;;
2620;SDS011;1320;48.128;11.592;2023-04-29T14:29:36;2.90;;;1.80;;
2620;SDS011;1320;48.128;11.592;2023-04-29T14:32:02;2.50;;;1.20;;
2620;SDS011;1320;48.128;11.592;2023-04-29T14:34:28;5.67;;;1.60;;
2620;SDS011;1320;48.128;11.592;2023-04-29T14:36:54;2.80;;;1.60;;
2620;SDS011;1320;48.128;11.592;2023-04-29T14:39:23;3.33;;;1.83;;
2620;SDS011;1320;48.128;11.592;2023-04-29T14:41:49;4.17;;;2.60;;
2620;SDS011;1320;48.128;11.592;2023-04-29T14:44:15;3.17;;;1.77;;
2620;SDS011;1320;48.128;11.592;2023-04-29T14:46:41;2.70;;;1.53;;
2620;SDS011;1320;48.128;11.592;2023-04-29T14:49:06;2.90;;;1.20;;
2620;SDS011;1320;48.128;11.592;2023-04-29T14:51:32;3.00;;;1.60;;
2620;SDS011;1320;48.128;11.592;2023-04-29T14:53:58;3.87;;;2.50;;
2620;SDS011;1320;48.128;11.592;2023-04-29T14:56:23;2.83;;;1.70;;
2620;SDS011;1320;48.128;11.592;2023-04-29T14:58:50;3.77;;;1.60;;
2620;SDS011;1320;48.128;11.592;2023-04-29T15:01:15;2.50;;;1.40;;
2620;SDS011;1320;48.128;11.592;2023-04-29T15:03:41;2.80;;;1.13;;
2620;SDS011;1320;48.128;11.592;2023-04-29T15:06:07;4.73;;;1.50;;
2620;SDS011;1320;48.128;11.592;2023-04-29T15:08:32;2.87;;;1.47;;
2620;SDS011;1320;48.128;11.592;2023-04-29T15:10:58;2.80;;;1.40;;
2620;SDS011;1320;48.128;11.592;2023-04-29T15:13:23;3.70;;;1.73;;
2620;SDS011;1320;48.128;11.592;2023-04-29T15:15:49;2.50;;;1.40;;
2620;SDS011;1320;48.128;11.592;2023-04-29T15:18:16;4.40;;;1.70;;
2620;SDS011;1320;48.128;11.592;2023-04-29T15:20:41;2.40;;;1.20;;
2620;SDS011;1320;48.128;11.592;2023-04-29T15:23:07;2.40;;;1.37;;
2620;SDS011;1320;48.128;11.592;2023-04-29T15:25:33;3.27;;;1.60;;